createdAt,value
2022-12-11T00:01:14.608Z,88.95
2022-12-11T00:03:44.464Z,88.99
2022-12-11T00:06:15.600Z,88.73
2022-12-11T00:08:43.935Z,88.60
2022-12-11T00:11:14.895Z,88.60
2022-12-11T00:13:43.984Z,89.08
2022-12-11T00:16:12.374Z,88.92
2022-12-11T00:18:41.520Z,88.97
2022-12-11T00:21:14.683Z,89.01
2022-12-11T00:23:43.374Z,88.61
2022-12-11T00:26:15.406Z,88.76
2022-12-11T00:28:45.108Z,88.89
2022-12-11T00:31:17.826Z,88.87
2022-12-11T00:33:48.988Z,88.61
2022-12-11T00:36:20.435Z,89.12
2022-12-11T00:38:49.861Z,88.92
2022-12-11T00:41:18.764Z,88.90
2022-12-11T00:43:47.468Z,89.10
2022-12-11T00:46:16.462Z,88.84
2022-12-11T00:48:46.184Z,89.09
2022-12-11T00:51:14.428Z,88.84
2022-12-11T00:53:44.584Z,88.83
2022-12-11T00:56:14.850Z,88.73
2022-12-11T00:58:43.764Z,88.59
2022-12-11T01:01:17.902Z,88.52
2022-12-11T01:03:46.509Z,88.73
2022-12-11T01:06:16.435Z,88.40
2022-12-11T01:08:47.325Z,88.75
2022-12-11T01:11:16.690Z,88.59
2022-12-11T01:13:45.392Z,88.65
2022-12-11T01:16:16.034Z,88.36
2022-12-11T01:18:44.747Z,88.63
2022-12-11T01:21:14.474Z,88.48
2022-12-11T01:23:42.927Z,88.45
2022-12-11T01:26:15.557Z,88.53
2022-12-11T01:28:44.229Z,88.68
2022-12-11T01:31:14.291Z,88.72
2022-12-11T01:33:42.987Z,88.54
2022-12-11T01:36:13.940Z,88.32
2022-12-11T01:38:42.810Z,88.29
2022-12-11T01:41:12.800Z,88.42
2022-12-11T01:44:01.759Z,88.21
2022-12-11T01:46:31.534Z,88.38
2022-12-11T01:49:01.938Z,88.40
2022-12-11T01:51:32.179Z,88.20
2022-12-11T01:54:03.683Z,88.28
2022-12-11T01:56:38.744Z,88.21
2022-12-11T01:59:09.538Z,88.19
2022-12-11T02:01:42.438Z,87.94
2022-12-11T02:04:12.400Z,88.12
2022-12-11T02:06:43.749Z,87.94
2022-12-11T02:09:15.302Z,88.42
2022-12-11T02:11:57.052Z,88.22
2022-12-11T02:14:33.688Z,88.02
2022-12-11T02:17:08.111Z,87.99
2022-12-11T02:19:49.526Z,87.87
2022-12-11T02:22:28.653Z,88.22
2022-12-11T02:25:10.136Z,88.06
2022-12-11T02:27:45.217Z,88.21
2022-12-11T02:30:16.076Z,87.97
2022-12-11T02:32:48.595Z,87.83
2022-12-11T02:35:22.520Z,87.92
2022-12-11T02:37:56.437Z,88.02
2022-12-11T02:40:31.035Z,87.68
2022-12-11T02:43:02.874Z,87.81
2022-12-11T02:45:34.946Z,88.04
2022-12-11T02:48:06.851Z,88.05
2022-12-11T02:50:40.227Z,88.35
2022-12-11T02:53:11.324Z,88.10
2022-12-11T02:55:41.616Z,88.04
2022-12-11T02:58:15.888Z,88.10
2022-12-11T03:00:46.675Z,87.76
2022-12-11T03:03:15.504Z,87.69
2022-12-11T03:05:46.253Z,88.17
2022-12-11T03:08:18.661Z,88.16
2022-12-11T03:10:47.291Z,87.65
2022-12-11T03:13:21.271Z,87.54
2022-12-11T03:16:09.337Z,87.62
2022-12-11T03:18:53.647Z,87.48
2022-12-11T03:21:36.176Z,87.45
2022-12-11T03:24:10.057Z,87.44
2022-12-11T03:26:43.709Z,87.50
2022-12-11T03:29:19.163Z,87.86
2022-12-11T03:31:54.792Z,87.84
2022-12-11T03:34:29.119Z,87.84
2022-12-11T03:37:00.979Z,87.77
2022-12-11T03:39:33.131Z,87.36
2022-12-11T03:42:04.038Z,87.31
2022-12-11T03:44:34.522Z,87.84
2022-12-11T03:47:08.026Z,87.57
2022-12-11T03:49:41.063Z,87.43
2022-12-11T03:52:12.484Z,87.32
2022-12-11T03:54:43.082Z,87.57
2022-12-11T03:57:16.215Z,87.47
2022-12-11T03:59:44.851Z,87.89
2022-12-11T04:02:14.527Z,87.45
2022-12-11T04:04:44.187Z,87.30
2022-12-11T04:07:12.647Z,87.43
2022-12-11T04:09:40.955Z,87.45
2022-12-11T04:12:09.320Z,87.05
2022-12-11T04:14:55.142Z,87.38
2022-12-11T04:17:42.400Z,87.12
2022-12-11T04:20:44.320Z,87.40
2022-12-11T04:23:32.530Z,87.31
2022-12-11T04:26:06.089Z,87.21
2022-12-11T04:28:34.926Z,87.16
2022-12-11T04:31:03.541Z,87.01
2022-12-11T04:33:33.451Z,87.18
2022-12-11T04:36:02.116Z,87.15
2022-12-11T04:38:30.468Z,87.41
2022-12-11T04:41:00.385Z,87.08
2022-12-11T04:43:28.738Z,86.94
2022-12-11T04:46:02.813Z,86.97
2022-12-11T04:48:31.132Z,86.81
2022-12-11T04:51:00.893Z,86.97
2022-12-11T04:53:30.770Z,87.21
2022-12-11T04:55:59.360Z,86.94
2022-12-11T04:58:27.755Z,86.99
2022-12-11T05:00:56.096Z,86.91
2022-12-11T05:03:24.549Z,86.86
2022-12-11T05:05:54.705Z,87.14
2022-12-11T05:08:24.513Z,86.81
2022-12-11T05:10:57.465Z,86.85
2022-12-11T05:13:25.889Z,86.95
2022-12-11T05:15:54.262Z,86.80
2022-12-11T05:18:22.835Z,87.01
2022-12-11T05:20:56.930Z,86.59
2022-12-11T05:23:27.273Z,86.83
2022-12-11T05:25:57.291Z,87.00
2022-12-11T05:28:26.889Z,86.83
2022-12-11T05:30:59.931Z,86.67
2022-12-11T05:33:28.460Z,86.47
2022-12-11T05:35:56.929Z,86.76
2022-12-11T05:38:26.893Z,86.82
2022-12-11T05:40:59.416Z,86.59
2022-12-11T05:43:29.367Z,86.17
2022-12-11T05:46:05.478Z,85.85
2022-12-11T05:48:33.851Z,85.87
2022-12-11T05:51:03.948Z,85.91
2022-12-11T05:53:34.282Z,85.78
2022-12-11T05:56:03.848Z,86.07
2022-12-11T05:58:33.136Z,85.65
2022-12-11T06:01:01.993Z,85.95
2022-12-11T06:03:30.345Z,85.98
2022-12-11T06:05:58.775Z,85.78
2022-12-11T06:08:27.243Z,85.90
2022-12-11T06:10:56.983Z,86.06
2022-12-11T06:13:25.630Z,85.57
2022-12-11T06:15:54.299Z,86.14
2022-12-11T06:18:22.923Z,85.66
2022-12-11T06:20:51.207Z,85.29
2022-12-11T06:23:19.516Z,85.31
2022-12-11T06:25:47.876Z,85.69
2022-12-11T06:28:17.633Z,85.87
2022-12-11T06:30:46.000Z,86.03
2022-12-11T06:33:14.606Z,85.99
2022-12-11T06:35:42.962Z,86.00
2022-12-11T06:38:11.546Z,86.08
2022-12-11T06:40:39.907Z,85.92
2022-12-11T06:43:08.368Z,85.85
2022-12-11T06:45:38.793Z,85.54
2022-12-11T06:48:07.559Z,85.43
2022-12-11T06:50:35.891Z,86.00
2022-12-11T06:53:04.206Z,85.37
2022-12-11T06:55:35.571Z,85.59
2022-12-11T06:58:04.108Z,85.52
2022-12-11T07:00:32.896Z,85.46
2022-12-11T07:03:02.534Z,85.46
2022-12-11T07:05:31.868Z,85.38
2022-12-11T07:08:00.295Z,85.39
2022-12-11T07:10:28.792Z,85.32
2022-12-11T07:12:57.585Z,85.53
2022-12-11T07:15:25.871Z,85.48
2022-12-11T07:17:54.549Z,85.37
2022-12-11T07:20:24.325Z,85.02
2022-12-11T07:22:52.775Z,85.03
2022-12-11T07:25:21.195Z,85.25
2022-12-11T07:27:49.563Z,85.13
2022-12-11T07:30:18.020Z,85.07
2022-12-11T07:32:46.483Z,85.24
2022-12-11T07:35:14.927Z,84.86
2022-12-11T07:37:45.895Z,84.89
2022-12-11T07:40:15.000Z,84.74
2022-12-11T07:42:46.286Z,85.09
2022-12-11T07:45:15.356Z,84.72
2022-12-11T07:47:43.755Z,84.64
2022-12-11T07:50:12.173Z,84.88
2022-12-11T07:52:40.822Z,84.95
2022-12-11T07:55:11.656Z,85.00
2022-12-11T07:57:40.274Z,84.43
2022-12-11T08:00:10.521Z,84.70
2022-12-11T08:02:39.237Z,84.42
2022-12-11T08:05:09.179Z,84.58
2022-12-11T08:07:37.651Z,84.58
2022-12-11T08:10:06.708Z,84.32
2022-12-11T08:12:39.700Z,84.56
2022-12-11T08:15:09.792Z,84.13
2022-12-11T08:17:40.139Z,84.39
2022-12-11T08:20:09.595Z,83.88
2022-12-11T08:22:38.132Z,84.09
2022-12-11T08:25:07.984Z,83.95
2022-12-11T08:27:36.498Z,83.79
2022-12-11T08:30:07.484Z,83.60
2022-12-11T08:32:36.451Z,83.67
2022-12-11T08:35:05.332Z,83.63
2022-12-11T08:37:34.963Z,83.70
2022-12-11T08:40:04.025Z,83.60
2022-12-11T08:42:32.341Z,83.64
2022-12-11T08:45:00.764Z,83.76
2022-12-11T08:47:30.483Z,83.76
2022-12-11T08:49:58.827Z,83.66
2022-12-11T08:52:27.227Z,83.22
2022-12-11T08:54:55.552Z,83.27
2022-12-11T08:57:23.930Z,83.15
2022-12-11T08:59:52.311Z,82.88
2022-12-11T09:02:20.720Z,83.10
2022-12-11T09:04:50.557Z,82.97
2022-12-11T09:07:18.951Z,82.86
2022-12-11T09:09:47.392Z,82.99
2022-12-11T09:12:15.781Z,83.01
2022-12-11T09:14:44.126Z,83.02
2022-12-11T09:17:18.536Z,82.61
2022-12-11T09:19:47.041Z,82.82
2022-12-11T09:22:16.749Z,82.89
2022-12-11T09:24:46.288Z,82.76
2022-12-11T09:27:14.811Z,82.83
2022-12-11T09:29:43.388Z,82.72
2022-12-11T09:32:12.291Z,82.70
2022-12-11T09:34:40.587Z,82.89
2022-12-11T09:37:08.984Z,82.66
2022-12-11T09:39:38.740Z,82.87
2022-12-11T09:42:14.611Z,82.64
2022-12-11T09:44:46.973Z,82.61
2022-12-11T09:47:24.935Z,82.75
2022-12-11T09:49:59.897Z,82.69
2022-12-11T09:52:35.807Z,82.48
2022-12-11T09:55:14.516Z,82.20
2022-12-11T09:57:51.844Z,82.77
2022-12-11T10:00:28.120Z,82.77
2022-12-11T10:03:41.261Z,83.00
2022-12-11T10:06:16.117Z,82.96
2022-12-11T10:08:52.713Z,83.16
2022-12-11T10:11:40.054Z,83.09
2022-12-11T10:14:17.280Z,82.73
2022-12-11T10:16:48.181Z,82.84
2022-12-11T10:19:20.513Z,82.82
2022-12-11T10:21:50.256Z,82.92
2022-12-11T10:24:48.866Z,82.83
2022-12-11T10:27:21.236Z,83.15
2022-12-11T10:29:55.145Z,83.01
2022-12-11T10:32:25.727Z,83.26
2022-12-11T10:35:00.376Z,83.49
2022-12-11T10:37:28.866Z,83.74
2022-12-11T10:39:57.244Z,83.72
2022-12-11T10:42:26.988Z,83.80
2022-12-11T10:45:00.481Z,83.98
2022-12-11T10:47:30.032Z,83.88
2022-12-11T10:50:01.943Z,83.80
2022-12-11T10:52:34.670Z,83.60
2022-12-11T10:55:05.716Z,83.76
2022-12-11T10:57:39.552Z,84.32
2022-12-11T11:00:10.422Z,83.71
2022-12-11T11:02:40.552Z,84.18
2022-12-11T11:05:18.291Z,84.25
2022-12-11T11:07:46.703Z,83.93
2022-12-11T11:10:17.807Z,84.08
2022-12-11T11:12:49.592Z,83.67
2022-12-11T11:15:20.797Z,83.20
2022-12-11T11:17:55.380Z,83.23
2022-12-11T11:20:26.570Z,83.49
2022-12-11T11:22:57.853Z,83.20
2022-12-11T11:25:28.176Z,83.66
2022-12-11T11:28:01.296Z,82.93
2022-12-11T11:30:32.234Z,83.10
2022-12-11T11:33:04.630Z,83.13
2022-12-11T11:35:34.067Z,82.92
2022-12-11T11:38:10.897Z,83.33
2022-12-11T11:40:45.651Z,83.10
2022-12-11T11:43:22.606Z,83.38
2022-12-11T11:45:58.737Z,82.96
2022-12-11T11:48:36.173Z,82.55
2022-12-11T11:51:15.027Z,82.42
2022-12-11T11:53:48.270Z,82.55
2022-12-11T11:56:22.421Z,82.88
2022-12-11T11:59:04.069Z,82.91
2022-12-11T12:01:32.926Z,82.91
2022-12-11T12:04:03.872Z,82.82
2022-12-11T12:06:50.471Z,82.79
2022-12-11T12:09:32.382Z,82.78
2022-12-11T12:12:22.793Z,82.72
2022-12-11T12:15:18.291Z,82.65
2022-12-11T12:17:56.179Z,82.22
2022-12-11T12:20:44.372Z,82.31
2022-12-11T12:23:39.719Z,81.94
2022-12-11T12:26:16.296Z,82.06
2022-12-11T12:28:53.920Z,82.43
2022-12-11T12:31:39.215Z,81.74
2022-12-11T12:34:22.836Z,81.91
2022-12-11T12:37:01.091Z,81.74
2022-12-11T12:39:35.827Z,81.69
2022-12-11T12:42:11.631Z,81.39
2022-12-11T12:44:51.248Z,81.49
2022-12-11T12:47:23.230Z,81.25
2022-12-11T12:49:54.218Z,81.28
2022-12-11T12:52:27.356Z,81.37
2022-12-11T12:55:18.855Z,81.60
2022-12-11T12:57:51.252Z,81.44
2022-12-11T13:00:31.622Z,81.50
2022-12-11T13:03:03.804Z,81.32
2022-12-11T13:05:35.531Z,81.31
2022-12-11T13:08:06.128Z,81.47
2022-12-11T13:10:37.051Z,81.02
2022-12-11T13:13:26.320Z,81.18
2022-12-11T13:15:54.718Z,81.33
2022-12-11T13:18:36.278Z,81.22
2022-12-11T13:21:25.650Z,81.19
2022-12-11T13:23:54.228Z,81.27
2022-12-11T13:26:30.633Z,81.13
2022-12-11T13:28:59.647Z,81.30
2022-12-11T13:31:35.031Z,81.02
2022-12-11T13:34:18.474Z,81.25
2022-12-11T13:36:50.180Z,81.11
2022-12-11T13:39:21.292Z,81.39
2022-12-11T13:41:53.620Z,81.31
2022-12-11T13:44:27.063Z,81.01
2022-12-11T13:46:58.269Z,81.22
2022-12-11T13:49:33.485Z,80.86
2022-12-11T13:52:02.927Z,81.17
2022-12-11T13:54:33.423Z,81.13
2022-12-11T13:57:05.431Z,80.95
2022-12-11T13:59:36.950Z,80.87
2022-12-11T14:02:14.586Z,80.73
2022-12-11T14:04:44.712Z,80.78
2022-12-11T14:07:13.527Z,80.93
2022-12-11T14:09:45.460Z,80.99
2022-12-11T14:12:19.086Z,80.88
2022-12-11T14:14:51.442Z,81.07
2022-12-11T14:17:27.814Z,80.67
2022-12-11T14:20:00.335Z,80.90
2022-12-11T14:22:30.444Z,81.13
2022-12-11T14:25:00.919Z,81.00
2022-12-11T14:27:29.346Z,80.95
2022-12-11T14:29:57.779Z,81.31
2022-12-11T14:32:34.787Z,80.94
2022-12-11T14:35:09.197Z,81.12
2022-12-11T14:37:39.656Z,81.00
2022-12-11T14:40:11.510Z,81.33
2022-12-11T14:42:45.205Z,81.25
2022-12-11T14:45:21.793Z,81.36
2022-12-11T14:47:51.835Z,81.50
2022-12-11T14:50:27.048Z,81.34
2022-12-11T14:53:00.991Z,81.49
2022-12-11T14:55:31.734Z,81.81
2022-12-11T14:58:03.765Z,81.39
2022-12-11T15:00:35.820Z,81.78
2022-12-11T15:03:07.227Z,81.73
2022-12-11T15:05:40.945Z,82.16
2022-12-11T15:08:24.790Z,81.92
2022-12-11T15:11:05.659Z,82.12
2022-12-11T15:13:36.301Z,81.42
2022-12-11T15:16:07.680Z,81.61
2022-12-11T15:18:39.204Z,81.48
2022-12-11T15:21:11.995Z,81.53
2022-12-11T15:23:51.438Z,81.63
2022-12-11T15:26:20.536Z,81.30
2022-12-11T15:28:48.920Z,81.67
2022-12-11T15:31:27.783Z,81.77
2022-12-11T15:33:56.173Z,81.62
2022-12-11T15:36:31.378Z,81.63
2022-12-11T15:38:59.791Z,81.57
2022-12-11T15:41:33.095Z,81.76
2022-12-11T15:44:03.589Z,81.50
2022-12-11T15:46:37.539Z,81.33
2022-12-11T15:49:13.633Z,81.13
2022-12-11T15:51:43.643Z,81.39
2022-12-11T15:54:12.201Z,81.31
2022-12-11T15:56:40.684Z,81.32
2022-12-11T15:59:09.223Z,81.42
2022-12-11T16:01:37.644Z,81.38
2022-12-11T16:04:06.214Z,81.30
2022-12-11T16:06:35.201Z,80.92
2022-12-11T16:09:05.711Z,80.89
2022-12-11T16:11:34.012Z,81.08
2022-12-11T16:14:04.342Z,80.86
2022-12-11T16:16:33.374Z,81.29
2022-12-11T16:19:01.928Z,80.78
2022-12-11T16:21:30.347Z,80.78
2022-12-11T16:23:58.716Z,80.98
2022-12-11T16:26:28.483Z,80.84
2022-12-11T16:28:56.984Z,81.04
2022-12-11T16:31:25.327Z,81.20
2022-12-11T16:33:53.747Z,81.01
2022-12-11T16:36:22.143Z,80.96
2022-12-11T16:38:53.905Z,80.95
2022-12-11T16:41:23.811Z,80.88
2022-12-11T16:43:55.322Z,80.98
2022-12-11T16:46:24.959Z,81.27
2022-12-11T16:48:53.393Z,81.19
2022-12-11T16:51:21.760Z,81.07
2022-12-11T16:53:50.358Z,81.32
2022-12-11T16:56:18.777Z,81.63
2022-12-11T16:58:48.224Z,81.15
2022-12-11T17:01:18.135Z,81.42
2022-12-11T17:03:46.728Z,81.43
2022-12-11T17:06:18.049Z,81.08
2022-12-11T17:08:47.372Z,81.07
2022-12-11T17:11:18.488Z,80.83
2022-12-11T17:13:47.210Z,80.81
2022-12-11T17:16:18.160Z,80.83
2022-12-11T17:18:46.671Z,81.29
2022-12-11T17:21:17.507Z,81.15
2022-12-11T17:23:46.592Z,80.74
2022-12-11T17:26:15.527Z,80.68
2022-12-11T17:28:44.714Z,80.55
2022-12-11T17:31:16.786Z,80.70
2022-12-11T17:33:47.420Z,80.56
2022-12-11T17:36:17.777Z,80.80
2022-12-11T17:38:46.705Z,80.60
2022-12-11T17:41:20.410Z,80.84
2022-12-11T17:43:49.987Z,80.56
2022-12-11T17:46:19.225Z,80.32
2022-12-11T17:48:49.596Z,80.73
2022-12-11T17:51:23.836Z,80.43
2022-12-11T17:53:52.894Z,80.43
2022-12-11T17:56:21.311Z,80.54
2022-12-11T17:58:49.674Z,80.48
2022-12-11T18:01:18.267Z,80.73
2022-12-11T18:03:48.284Z,80.61
2022-12-11T18:06:17.759Z,80.92
2022-12-11T18:08:46.373Z,81.17
2022-12-11T18:11:22.950Z,81.03
2022-12-11T18:13:52.760Z,81.03
2022-12-11T18:16:24.460Z,80.94
2022-12-11T18:18:54.909Z,81.13
2022-12-11T18:21:25.831Z,80.93
2022-12-11T18:23:54.412Z,80.89
2022-12-11T18:26:23.462Z,80.65
2022-12-11T18:28:52.990Z,80.81
2022-12-11T18:31:22.480Z,80.80
2022-12-11T18:33:51.252Z,80.98
2022-12-11T18:36:22.679Z,80.65
2022-12-11T18:38:51.100Z,80.62
2022-12-11T18:41:20.988Z,80.97
2022-12-11T18:43:49.434Z,80.72
2022-12-11T18:46:19.994Z,80.88
2022-12-11T18:48:49.109Z,80.90
2022-12-11T18:51:22.613Z,80.98
2022-12-11T18:53:51.077Z,80.94
2022-12-11T18:56:21.240Z,80.68
2022-12-11T18:58:49.893Z,80.73
2022-12-11T19:01:20.257Z,80.78
2022-12-11T19:03:48.887Z,80.89
2022-12-11T19:06:21.103Z,80.75
2022-12-11T19:08:49.504Z,80.98
2022-12-11T19:11:19.219Z,80.80
2022-12-11T19:13:48.392Z,80.68
2022-12-11T19:16:18.317Z,80.77
2022-12-11T19:18:47.008Z,80.88
2022-12-11T19:21:17.615Z,80.40
2022-12-11T19:23:47.635Z,80.58
2022-12-11T19:26:18.846Z,80.61
2022-12-11T19:28:48.318Z,80.79
2022-12-11T19:31:18.861Z,81.00
2022-12-11T19:33:47.355Z,80.91
2022-12-11T19:36:18.138Z,80.54
2022-12-11T19:38:47.883Z,80.60
2022-12-11T19:41:19.819Z,80.34
2022-12-11T19:43:48.413Z,80.67
2022-12-11T19:46:18.205Z,80.33
2022-12-11T19:48:49.088Z,80.24
2022-12-11T19:51:19.359Z,79.95
2022-12-11T19:53:49.984Z,80.03
2022-12-11T19:56:19.775Z,80.02
2022-12-11T19:58:49.935Z,80.28
2022-12-11T20:01:24.960Z,79.81
2022-12-11T20:03:53.719Z,79.76
2022-12-11T20:06:22.725Z,79.96
2022-12-11T20:08:52.442Z,79.58
2022-12-11T20:11:20.944Z,80.06
2022-12-11T20:13:50.088Z,79.96
2022-12-11T20:16:39.214Z,79.96
2022-12-11T20:19:08.692Z,80.10
2022-12-11T20:21:37.103Z,80.27
2022-12-11T20:24:07.667Z,79.92
2022-12-11T20:26:36.992Z,80.13
2022-12-11T20:29:08.353Z,79.96
2022-12-11T20:31:37.878Z,79.92
2022-12-11T20:34:07.199Z,80.10
2022-12-11T20:36:35.899Z,80.23
2022-12-11T20:39:06.257Z,80.13
2022-12-11T20:41:34.624Z,80.54
2022-12-11T20:44:02.939Z,80.52
2022-12-11T20:46:31.294Z,80.25
2022-12-11T20:48:59.756Z,80.08
2022-12-11T20:51:29.172Z,80.32
2022-12-11T20:53:59.508Z,80.34
2022-12-11T20:56:31.583Z,80.23
2022-12-11T20:59:00.895Z,79.93
2022-12-11T21:01:32.373Z,80.08
2022-12-11T21:04:01.362Z,80.26
2022-12-11T21:06:32.650Z,80.21
2022-12-11T21:09:05.624Z,80.45
2022-12-11T21:11:35.557Z,80.48
2022-12-11T21:14:03.890Z,80.23
2022-12-11T21:16:32.394Z,80.10
2022-12-11T21:19:01.622Z,80.19
2022-12-11T21:21:32.268Z,80.32
2022-12-11T21:24:00.612Z,80.33
2022-12-11T21:26:28.995Z,79.86
2022-12-11T21:28:58.656Z,79.81
2022-12-11T21:31:27.299Z,79.94
2022-12-11T21:33:55.908Z,79.88
2022-12-11T21:36:24.312Z,79.78
2022-12-11T21:38:52.759Z,79.98
2022-12-11T21:41:22.930Z,80.02
2022-12-11T21:46:43.386Z,80.11
2022-12-11T21:49:11.995Z,80.22
2022-12-11T21:51:46.727Z,79.82
2022-12-11T21:54:18.867Z,79.87
2022-12-11T21:56:47.979Z,79.86
2022-12-11T21:59:16.899Z,79.84
2022-12-11T22:01:47.460Z,79.61
2022-12-11T22:04:16.545Z,79.80
2022-12-11T22:06:47.054Z,79.73
2022-12-11T22:09:17.887Z,79.50
2022-12-11T22:11:47.640Z,79.54
2022-12-11T22:14:18.010Z,79.70
2022-12-11T22:16:47.892Z,79.79
2022-12-11T22:19:16.264Z,79.75
2022-12-11T22:21:44.673Z,79.95
2022-12-11T22:24:14.066Z,80.17
2022-12-11T22:26:42.393Z,79.97
2022-12-11T22:29:10.843Z,79.89
2022-12-11T22:31:39.191Z,80.07
2022-12-11T22:34:09.120Z,80.11
2022-12-11T22:36:38.435Z,79.99
2022-12-11T22:39:06.800Z,79.94
2022-12-11T22:41:38.315Z,80.10
2022-12-11T22:44:06.616Z,80.11
2022-12-11T22:46:34.962Z,80.17
2022-12-11T22:49:04.205Z,80.22
2022-12-11T22:51:34.678Z,80.10
2022-12-11T22:54:03.282Z,79.83
2022-12-11T22:56:31.714Z,79.70
2022-12-11T22:59:01.019Z,79.77
2022-12-11T23:01:29.451Z,79.82
2022-12-11T23:03:57.716Z,79.78
2022-12-11T23:06:26.529Z,79.68
2022-12-11T23:08:59.262Z,79.53
2022-12-11T23:11:30.663Z,79.83
2022-12-11T23:13:59.182Z,79.60
2022-12-11T23:16:28.837Z,79.61
2022-12-11T23:18:58.130Z,79.60
2022-12-11T23:21:28.031Z,79.58
2022-12-11T23:23:58.195Z,79.58
2022-12-11T23:26:28.272Z,79.89
2022-12-11T23:28:58.051Z,79.83
2022-12-11T23:31:27.904Z,79.78
2022-12-11T23:33:56.261Z,79.81
2022-12-11T23:36:26.335Z,79.69
2022-12-11T23:38:55.362Z,79.61
2022-12-11T23:41:25.514Z,79.62
2022-12-11T23:43:53.842Z,79.58
2022-12-11T23:46:24.474Z,79.34
2022-12-11T23:48:53.553Z,79.58
2022-12-11T23:51:23.551Z,79.29
2022-12-11T23:53:52.618Z,79.42
2022-12-11T23:56:23.142Z,79.18
2022-12-11T23:58:52.899Z,79.28
